sensor_id;sensor_type;location;lat;lon;timestamp;P1;durP1;ratioP1;P2;durP2;ratioP2
20320;SDS011;10318;47.674;9.052;2022-08-19T00:01:37;2.42;;;2.17;;
20320;SDS011;10318;47.674;9.052;2022-08-19T00:04:06;2.88;;;2.10;;
20320;SDS011;10318;47.674;9.052;2022-08-19T00:06:33;2.38;;;2.17;;
20320;SDS011;10318;47.674;9.052;2022-08-19T00:08:59;2.97;;;2.58;;
20320;SDS011;10318;47.674;9.052;2022-08-19T00:11:27;3.47;;;2.15;;
20320;SDS011;10318;47.674;9.052;2022-08-19T00:13:54;3.28;;;2.67;;
20320;SDS011;10318;47.674;9.052;2022-08-19T00:16:22;3.45;;;2.45;;
20320;SDS011;10318;47.674;9.052;2022-08-19T00:18:52;2.60;;;2.40;;
20320;SDS011;10318;47.674;9.052;2022-08-19T00:21:19;2.97;;;2.67;;
20320;SDS011;10318;47.674;9.052;2022-08-19T00:23:46;3.10;;;2.80;;
20320;SDS011;10318;47.674;9.052;2022-08-19T00:26:13;3.65;;;3.35;;
20320;SDS011;10318;47.674;9.052;2022-08-19T00:28:40;4.70;;;3.80;;
20320;SDS011;10318;47.674;9.052;2022-08-19T00:31:07;4.10;;;3.80;;
20320;SDS011;10318;47.674;9.052;2022-08-19T00:33:34;6.38;;;4.00;;
20320;SDS011;10318;47.674;9.052;2022-08-19T00:36:01;4.35;;;3.95;;
20320;SDS011;10318;47.674;9.052;2022-08-19T00:38:30;5.10;;;4.10;;
20320;SDS011;10318;47.674;9.052;2022-08-19T00:41:06;4.82;;;4.38;;
20320;SDS011;10318;47.674;9.052;2022-08-19T00:43:33;5.63;;;5.13;;
20320;SDS011;10318;47.674;9.052;2022-08-19T00:45:59;6.88;;;5.38;;
20320;SDS011;10318;47.674;9.052;2022-08-19T00:48:27;7.82;;;5.00;;
20320;SDS011;10318;47.674;9.052;2022-08-19T00:50:54;6.22;;;5.53;;
20320;SDS011;10318;47.674;9.052;2022-08-19T00:53:23;8.15;;;6.65;;
20320;SDS011;10318;47.674;9.052;2022-08-19T00:55:50;7.82;;;6.75;;
20320;SDS011;10318;47.674;9.052;2022-08-19T00:58:19;8.63;;;7.85;;
20320;SDS011;10318;47.674;9.052;2022-08-19T01:00:46;8.52;;;7.72;;
20320;SDS011;10318;47.674;9.052;2022-08-19T01:03:15;8.10;;;7.40;;
20320;SDS011;10318;47.674;9.052;2022-08-19T01:05:45;8.88;;;8.00;;
20320;SDS011;10318;47.674;9.052;2022-08-19T01:08:12;8.52;;;7.72;;
20320;SDS011;10318;47.674;9.052;2022-08-19T01:10:43;8.63;;;7.72;;
20320;SDS011;10318;47.674;9.052;2022-08-19T01:13:11;10.68;;;8.32;;
20320;SDS011;10318;47.674;9.052;2022-08-19T01:15:41;9.30;;;8.40;;
20320;SDS011;10318;47.674;9.052;2022-08-19T01:18:09;9.07;;;8.27;;
20320;SDS011;10318;47.674;9.052;2022-08-19T01:20:37;12.90;;;7.93;;
20320;SDS011;10318;47.674;9.052;2022-08-19T01:23:05;8.35;;;7.65;;
20320;SDS011;10318;47.674;9.052;2022-08-19T01:25:32;9.43;;;8.52;;
20320;SDS011;10318;47.674;9.052;2022-08-19T01:28:04;9.45;;;8.55;;
20320;SDS011;10318;47.674;9.052;2022-08-19T01:30:36;9.57;;;8.70;;
20320;SDS011;10318;47.674;9.052;2022-08-19T01:33:03;10.55;;;9.55;;
20320;SDS011;10318;47.674;9.052;2022-08-19T01:35:32;10.10;;;9.10;;
20320;SDS011;10318;47.674;9.052;2022-08-19T01:38:00;9.95;;;8.95;;
20320;SDS011;10318;47.674;9.052;2022-08-19T01:40:31;10.65;;;9.65;;
20320;SDS011;10318;47.674;9.052;2022-08-19T01:42:59;10.68;;;9.57;;
20320;SDS011;10318;47.674;9.052;2022-08-19T01:45:27;10.98;;;9.98;;
20320;SDS011;10318;47.674;9.052;2022-08-19T01:47:54;11.07;;;9.95;;
20320;SDS011;10318;47.674;9.052;2022-08-19T01:50:28;11.07;;;10.07;;
20320;SDS011;10318;47.674;9.052;2022-08-19T01:52:55;11.90;;;10.80;;
20320;SDS011;10318;47.674;9.052;2022-08-19T01:55:31;10.50;;;9.50;;
20320;SDS011;10318;47.674;9.052;2022-08-19T01:58:00;10.90;;;9.82;;
20320;SDS011;10318;47.674;9.052;2022-08-19T02:00:29;12.13;;;10.93;;
20320;SDS011;10318;47.674;9.052;2022-08-19T02:02:56;11.68;;;10.57;;
20320;SDS011;10318;47.674;9.052;2022-08-19T02:05:23;13.23;;;10.32;;
20320;SDS011;10318;47.674;9.052;2022-08-19T02:07:50;11.48;;;10.13;;
20320;SDS011;10318;47.674;9.052;2022-08-19T02:10:18;12.13;;;10.25;;
20320;SDS011;10318;47.674;9.052;2022-08-19T02:12:46;11.95;;;10.52;;
20320;SDS011;10318;47.674;9.052;2022-08-19T02:15:13;11.88;;;10.65;;
20320;SDS011;10318;47.674;9.052;2022-08-19T02:17:39;11.35;;;10.25;;
20320;SDS011;10318;47.674;9.052;2022-08-19T02:20:07;11.38;;;10.27;;
20320;SDS011;10318;47.674;9.052;2022-08-19T02:22:34;11.13;;;10.00;;
20320;SDS011;10318;47.674;9.052;2022-08-19T02:25:01;11.40;;;9.68;;
20320;SDS011;10318;47.674;9.052;2022-08-19T02:27:28;11.32;;;10.23;;
20320;SDS011;10318;47.674;9.052;2022-08-19T02:29:55;11.73;;;10.63;;
20320;SDS011;10318;47.674;9.052;2022-08-19T02:32:22;12.38;;;11.05;;
20320;SDS011;10318;47.674;9.052;2022-08-19T02:34:49;12.07;;;10.50;;
20320;SDS011;10318;47.674;9.052;2022-08-19T02:37:16;11.38;;;10.20;;
20320;SDS011;10318;47.674;9.052;2022-08-19T02:40:12;13.13;;;11.85;;
20320;SDS011;10318;47.674;9.052;2022-08-19T02:42:38;11.27;;;10.13;;
20320;SDS011;10318;47.674;9.052;2022-08-19T02:45:07;10.75;;;9.65;;
20320;SDS011;10318;47.674;9.052;2022-08-19T02:47:34;12.82;;;10.48;;
20320;SDS011;10318;47.674;9.052;2022-08-19T02:50:01;13.80;;;11.73;;
20320;SDS011;10318;47.674;9.052;2022-08-19T02:52:30;15.35;;;11.85;;
20320;SDS011;10318;47.674;9.052;2022-08-19T02:54:57;11.93;;;10.63;;
20320;SDS011;10318;47.674;9.052;2022-08-19T02:57:24;12.80;;;11.45;;
20320;SDS011;10318;47.674;9.052;2022-08-19T02:59:51;12.57;;;11.27;;
20320;SDS011;10318;47.674;9.052;2022-08-19T03:02:18;12.07;;;10.88;;
20320;SDS011;10318;47.674;9.052;2022-08-19T03:04:45;12.48;;;11.27;;
20320;SDS011;10318;47.674;9.052;2022-08-19T03:07:15;13.00;;;11.27;;
20320;SDS011;10318;47.674;9.052;2022-08-19T03:09:42;13.15;;;11.80;;
20320;SDS011;10318;47.674;9.052;2022-08-19T03:12:09;13.40;;;11.90;;
20320;SDS011;10318;47.674;9.052;2022-08-19T03:14:36;12.82;;;11.40;;
20320;SDS011;10318;47.674;9.052;2022-08-19T03:17:03;13.55;;;12.18;;
20320;SDS011;10318;47.674;9.052;2022-08-19T03:19:31;13.07;;;11.80;;
20320;SDS011;10318;47.674;9.052;2022-08-19T03:21:57;13.77;;;12.40;;
20320;SDS011;10318;47.674;9.052;2022-08-19T03:24:24;13.13;;;11.82;;
20320;SDS011;10318;47.674;9.052;2022-08-19T03:26:52;14.55;;;12.15;;
20320;SDS011;10318;47.674;9.052;2022-08-19T03:29:21;14.00;;;12.60;;
20320;SDS011;10318;47.674;9.052;2022-08-19T03:32:00;16.08;;;12.65;;
20320;SDS011;10318;47.674;9.052;2022-08-19T03:34:30;15.82;;;12.82;;
20320;SDS011;10318;47.674;9.052;2022-08-19T03:36:59;13.90;;;12.32;;
20320;SDS011;10318;47.674;9.052;2022-08-19T03:39:26;15.45;;;13.80;;
20320;SDS011;10318;47.674;9.052;2022-08-19T03:41:53;15.63;;;14.00;;
20320;SDS011;10318;47.674;9.052;2022-08-19T03:44:43;13.85;;;12.38;;
20320;SDS011;10318;47.674;9.052;2022-08-19T03:47:11;14.60;;;13.18;;
20320;SDS011;10318;47.674;9.052;2022-08-19T03:49:42;14.98;;;12.52;;
20320;SDS011;10318;47.674;9.052;2022-08-19T03:52:09;16.67;;;13.38;;
20320;SDS011;10318;47.674;9.052;2022-08-19T03:54:36;15.90;;;13.85;;
20320;SDS011;10318;47.674;9.052;2022-08-19T03:57:05;15.85;;;14.15;;
20320;SDS011;10318;47.674;9.052;2022-08-19T03:59:33;16.70;;;13.15;;
20320;SDS011;10318;47.674;9.052;2022-08-19T04:02:01;13.75;;;12.30;;
20320;SDS011;10318;47.674;9.052;2022-08-19T04:04:28;15.63;;;14.02;;
20320;SDS011;10318;47.674;9.052;2022-08-19T04:06:57;15.38;;;13.23;;
20320;SDS011;10318;47.674;9.052;2022-08-19T04:09:24;19.13;;;13.90;;
20320;SDS011;10318;47.674;9.052;2022-08-19T04:11:53;15.45;;;13.85;;
20320;SDS011;10318;47.674;9.052;2022-08-19T04:14:23;15.25;;;13.65;;
20320;SDS011;10318;47.674;9.052;2022-08-19T04:16:51;16.15;;;13.60;;
20320;SDS011;10318;47.674;9.052;2022-08-19T04:19:18;15.65;;;13.25;;
20320;SDS011;10318;47.674;9.052;2022-08-19T04:21:48;16.30;;;13.82;;
20320;SDS011;10318;47.674;9.052;2022-08-19T04:24:15;15.20;;;13.15;;
20320;SDS011;10318;47.674;9.052;2022-08-19T04:26:42;14.88;;;13.32;;
20320;SDS011;10318;47.674;9.052;2022-08-19T04:29:10;17.98;;;14.52;;
20320;SDS011;10318;47.674;9.052;2022-08-19T04:31:38;15.98;;;14.27;;
20320;SDS011;10318;47.674;9.052;2022-08-19T04:34:06;16.10;;;14.50;;
20320;SDS011;10318;47.674;9.052;2022-08-19T04:36:34;16.33;;;14.73;;
20320;SDS011;10318;47.674;9.052;2022-08-19T04:39:03;15.63;;;14.02;;
20320;SDS011;10318;47.674;9.052;2022-08-19T04:41:30;19.95;;;16.23;;
20320;SDS011;10318;47.674;9.052;2022-08-19T04:44:15;17.27;;;15.48;;
20320;SDS011;10318;47.674;9.052;2022-08-19T04:46:46;17.40;;;14.88;;
20320;SDS011;10318;47.674;9.052;2022-08-19T04:49:20;19.15;;;14.70;;
20320;SDS011;10318;47.674;9.052;2022-08-19T04:51:49;17.33;;;15.15;;
20320;SDS011;10318;47.674;9.052;2022-08-19T04:54:16;17.88;;;15.70;;
20320;SDS011;10318;47.674;9.052;2022-08-19T04:57:03;19.98;;;15.82;;
20320;SDS011;10318;47.674;9.052;2022-08-19T04:59:33;17.30;;;15.50;;
20320;SDS011;10318;47.674;9.052;2022-08-19T05:02:00;19.20;;;15.75;;
20320;SDS011;10318;47.674;9.052;2022-08-19T05:04:26;18.35;;;15.02;;
20320;SDS011;10318;47.674;9.052;2022-08-19T05:06:55;20.00;;;15.70;;
20320;SDS011;10318;47.674;9.052;2022-08-19T05:09:26;19.05;;;15.65;;
20320;SDS011;10318;47.674;9.052;2022-08-19T05:11:53;17.52;;;15.25;;
20320;SDS011;10318;47.674;9.052;2022-08-19T05:14:20;18.42;;;16.00;;
20320;SDS011;10318;47.674;9.052;2022-08-19T05:16:48;21.30;;;15.70;;
20320;SDS011;10318;47.674;9.052;2022-08-19T05:19:14;18.52;;;15.95;;
20320;SDS011;10318;47.674;9.052;2022-08-19T05:22:00;15.57;;;13.98;;
20320;SDS011;10318;47.674;9.052;2022-08-19T05:24:45;18.63;;;14.65;;
20320;SDS011;10318;47.674;9.052;2022-08-19T05:27:32;17.85;;;14.43;;
20320;SDS011;10318;47.674;9.052;2022-08-19T05:29:59;16.88;;;14.93;;
20320;SDS011;10318;47.674;9.052;2022-08-19T05:32:26;21.20;;;16.10;;
20320;SDS011;10318;47.674;9.052;2022-08-19T05:34:53;18.73;;;15.25;;
20320;SDS011;10318;47.674;9.052;2022-08-19T05:37:20;18.98;;;15.60;;
20320;SDS011;10318;47.674;9.052;2022-08-19T05:39:47;16.55;;;14.60;;
20320;SDS011;10318;47.674;9.052;2022-08-19T05:42:17;18.20;;;14.80;;
20320;SDS011;10318;47.674;9.052;2022-08-19T05:44:46;18.83;;;15.80;;
20320;SDS011;10318;47.674;9.052;2022-08-19T05:47:15;16.33;;;14.57;;
20320;SDS011;10318;47.674;9.052;2022-08-19T05:49:42;18.95;;;15.20;;
20320;SDS011;10318;47.674;9.052;2022-08-19T05:52:10;19.83;;;15.65;;
20320;SDS011;10318;47.674;9.052;2022-08-19T05:54:39;18.80;;;15.93;;
20320;SDS011;10318;47.674;9.052;2022-08-19T05:57:08;19.45;;;16.35;;
20320;SDS011;10318;47.674;9.052;2022-08-19T05:59:38;18.10;;;15.80;;
20320;SDS011;10318;47.674;9.052;2022-08-19T06:02:05;17.55;;;15.40;;
20320;SDS011;10318;47.674;9.052;2022-08-19T06:04:33;18.38;;;15.65;;
20320;SDS011;10318;47.674;9.052;2022-08-19T06:07:00;17.63;;;15.82;;
20320;SDS011;10318;47.674;9.052;2022-08-19T06:09:39;17.70;;;15.88;;
20320;SDS011;10318;47.674;9.052;2022-08-19T06:12:05;18.52;;;16.52;;
20320;SDS011;10318;47.674;9.052;2022-08-19T06:14:34;17.15;;;15.38;;
20320;SDS011;10318;47.674;9.052;2022-08-19T06:17:07;21.85;;;17.70;;
20320;SDS011;10318;47.674;9.052;2022-08-19T06:19:34;22.02;;;17.60;;
20320;SDS011;10318;47.674;9.052;2022-08-19T06:22:06;21.85;;;17.60;;
20320;SDS011;10318;47.674;9.052;2022-08-19T06:24:33;18.33;;;16.42;;
20320;SDS011;10318;47.674;9.052;2022-08-19T06:27:00;18.80;;;16.83;;
20320;SDS011;10318;47.674;9.052;2022-08-19T06:29:28;18.55;;;16.48;;
20320;SDS011;10318;47.674;9.052;2022-08-19T06:31:57;19.30;;;17.27;;
20320;SDS011;10318;47.674;9.052;2022-08-19T06:34:24;18.40;;;16.52;;
20320;SDS011;10318;47.674;9.052;2022-08-19T06:36:52;21.23;;;17.15;;
20320;SDS011;10318;47.674;9.052;2022-08-19T06:39:20;19.23;;;17.25;;
20320;SDS011;10318;47.674;9.052;2022-08-19T06:41:48;19.17;;;16.95;;
20320;SDS011;10318;47.674;9.052;2022-08-19T06:44:20;19.17;;;16.77;;
20320;SDS011;10318;47.674;9.052;2022-08-19T06:46:47;18.33;;;16.42;;
20320;SDS011;10318;47.674;9.052;2022-08-19T06:49:20;19.48;;;16.75;;
20320;SDS011;10318;47.674;9.052;2022-08-19T06:51:47;18.90;;;16.88;;
20320;SDS011;10318;47.674;9.052;2022-08-19T06:54:15;19.77;;;17.13;;
20320;SDS011;10318;47.674;9.052;2022-08-19T06:56:45;17.42;;;15.68;;
20320;SDS011;10318;47.674;9.052;2022-08-19T06:59:13;22.70;;;16.60;;
20320;SDS011;10318;47.674;9.052;2022-08-19T07:01:43;18.42;;;16.50;;
20320;SDS011;10318;47.674;9.052;2022-08-19T07:04:13;19.00;;;16.42;;
20320;SDS011;10318;47.674;9.052;2022-08-19T07:06:40;18.20;;;16.30;;
20320;SDS011;10318;47.674;9.052;2022-08-19T07:09:11;19.17;;;17.17;;
20320;SDS011;10318;47.674;9.052;2022-08-19T07:11:38;17.02;;;15.23;;
20320;SDS011;10318;47.674;9.052;2022-08-19T07:14:05;19.00;;;16.80;;
20320;SDS011;10318;47.674;9.052;2022-08-19T07:16:45;18.63;;;15.60;;
20320;SDS011;10318;47.674;9.052;2022-08-19T07:19:12;20.30;;;15.30;;
20320;SDS011;10318;47.674;9.052;2022-08-19T07:21:44;17.20;;;15.32;;
20320;SDS011;10318;47.674;9.052;2022-08-19T07:24:12;18.55;;;14.88;;
20320;SDS011;10318;47.674;9.052;2022-08-19T07:26:40;16.35;;;14.57;;
20320;SDS011;10318;47.674;9.052;2022-08-19T07:29:08;16.77;;;14.55;;
20320;SDS011;10318;47.674;9.052;2022-08-19T07:31:35;15.48;;;13.88;;
20320;SDS011;10318;47.674;9.052;2022-08-19T07:34:03;17.02;;;13.85;;
20320;SDS011;10318;47.674;9.052;2022-08-19T07:36:34;16.17;;;14.52;;
20320;SDS011;10318;47.674;9.052;2022-08-19T07:39:03;17.45;;;15.23;;
20320;SDS011;10318;47.674;9.052;2022-08-19T07:41:30;18.55;;;15.50;;
20320;SDS011;10318;47.674;9.052;2022-08-19T07:43:58;16.75;;;14.23;;
20320;SDS011;10318;47.674;9.052;2022-08-19T07:46:30;16.83;;;15.05;;
20320;SDS011;10318;47.674;9.052;2022-08-19T07:48:57;16.02;;;14.38;;
20320;SDS011;10318;47.674;9.052;2022-08-19T07:51:24;19.25;;;15.63;;
20320;SDS011;10318;47.674;9.052;2022-08-19T07:54:03;16.63;;;14.85;;
20320;SDS011;10318;47.674;9.052;2022-08-19T07:56:29;17.40;;;15.55;;
20320;SDS011;10318;47.674;9.052;2022-08-19T07:58:56;15.68;;;14.05;;
20320;SDS011;10318;47.674;9.052;2022-08-19T08:01:24;18.88;;;15.35;;
20320;SDS011;10318;47.674;9.052;2022-08-19T08:03:52;16.05;;;14.45;;
20320;SDS011;10318;47.674;9.052;2022-08-19T08:06:37;18.45;;;15.85;;
20320;SDS011;10318;47.674;9.052;2022-08-19T08:09:25;18.35;;;16.45;;
20320;SDS011;10318;47.674;9.052;2022-08-19T08:11:58;19.02;;;15.82;;
20320;SDS011;10318;47.674;9.052;2022-08-19T08:14:36;19.80;;;16.90;;
20320;SDS011;10318;47.674;9.052;2022-08-19T08:17:09;18.88;;;16.83;;
20320;SDS011;10318;47.674;9.052;2022-08-19T08:19:36;19.23;;;17.15;;
20320;SDS011;10318;47.674;9.052;2022-08-19T08:22:04;19.40;;;16.92;;
20320;SDS011;10318;47.674;9.052;2022-08-19T08:24:32;22.58;;;17.45;;
20320;SDS011;10318;47.674;9.052;2022-08-19T08:27:00;22.67;;;17.50;;
20320;SDS011;10318;47.674;9.052;2022-08-19T08:29:36;20.67;;;18.42;;
20320;SDS011;10318;47.674;9.052;2022-08-19T08:32:04;23.10;;;19.35;;
20320;SDS011;10318;47.674;9.052;2022-08-19T08:34:40;22.60;;;17.55;;
20320;SDS011;10318;47.674;9.052;2022-08-19T08:37:07;20.98;;;18.33;;
20320;SDS011;10318;47.674;9.052;2022-08-19T08:39:34;18.33;;;16.10;;
20320;SDS011;10318;47.674;9.052;2022-08-19T08:44:45;20.17;;;17.98;;
20320;SDS011;10318;47.674;9.052;2022-08-19T08:47:18;19.80;;;17.50;;
20320;SDS011;10318;47.674;9.052;2022-08-19T08:52:21;22.50;;;17.52;;
20320;SDS011;10318;47.674;9.052;2022-08-19T08:54:50;21.65;;;17.98;;
20320;SDS011;10318;47.674;9.052;2022-08-19T08:59:50;23.60;;;17.83;;
20320;SDS011;10318;47.674;9.052;2022-08-19T09:02:20;20.52;;;16.75;;
20320;SDS011;10318;47.674;9.052;2022-08-19T09:04:46;21.52;;;17.42;;
20320;SDS011;10318;47.674;9.052;2022-08-19T09:07:19;20.00;;;17.73;;
20320;SDS011;10318;47.674;9.052;2022-08-19T09:10:22;18.75;;;16.25;;
20320;SDS011;10318;47.674;9.052;2022-08-19T09:15:36;18.70;;;16.05;;
20320;SDS011;10318;47.674;9.052;2022-08-19T09:18:05;20.05;;;17.42;;
20320;SDS011;10318;47.674;9.052;2022-08-19T09:20:44;19.20;;;16.77;;
20320;SDS011;10318;47.674;9.052;2022-08-19T09:23:11;17.55;;;15.60;;
20320;SDS011;10318;47.674;9.052;2022-08-19T09:25:38;18.48;;;16.40;;
20320;SDS011;10318;47.674;9.052;2022-08-19T09:28:06;20.50;;;16.75;;
20320;SDS011;10318;47.674;9.052;2022-08-19T09:30:50;20.25;;;17.08;;
20320;SDS011;10318;47.674;9.052;2022-08-19T09:33:18;17.65;;;15.27;;
20320;SDS011;10318;47.674;9.052;2022-08-19T09:35:46;18.33;;;16.05;;
20320;SDS011;10318;47.674;9.052;2022-08-19T09:38:19;18.08;;;15.98;;
20320;SDS011;10318;47.674;9.052;2022-08-19T09:40:46;20.42;;;16.27;;
20320;SDS011;10318;47.674;9.052;2022-08-19T09:43:13;16.60;;;14.27;;
20320;SDS011;10318;47.674;9.052;2022-08-19T09:45:39;17.50;;;15.30;;
20320;SDS011;10318;47.674;9.052;2022-08-19T09:48:06;18.05;;;14.57;;
20320;SDS011;10318;47.674;9.052;2022-08-19T09:50:34;16.98;;;14.75;;
20320;SDS011;10318;47.674;9.052;2022-08-19T09:53:17;16.42;;;13.85;;
20320;SDS011;10318;47.674;9.052;2022-08-19T09:55:44;15.43;;;13.50;;
20320;SDS011;10318;47.674;9.052;2022-08-19T09:58:11;15.85;;;13.52;;
20320;SDS011;10318;47.674;9.052;2022-08-19T10:00:38;13.60;;;12.15;;
20320;SDS011;10318;47.674;9.052;2022-08-19T10:03:05;16.10;;;13.35;;
20320;SDS011;10318;47.674;9.052;2022-08-19T10:05:32;15.95;;;12.68;;
20320;SDS011;10318;47.674;9.052;2022-08-19T10:08:33;15.35;;;13.05;;
20320;SDS011;10318;47.674;9.052;2022-08-19T10:11:01;15.15;;;13.55;;
20320;SDS011;10318;47.674;9.052;2022-08-19T10:13:48;19.98;;;12.60;;
20320;SDS011;10318;47.674;9.052;2022-08-19T10:16:19;15.38;;;13.68;;
20320;SDS011;10318;47.674;9.052;2022-08-19T10:18:52;16.95;;;12.88;;
20320;SDS011;10318;47.674;9.052;2022-08-19T10:21:28;14.90;;;12.77;;
20320;SDS011;10318;47.674;9.052;2022-08-19T10:23:59;16.08;;;12.27;;
20320;SDS011;10318;47.674;9.052;2022-08-19T10:26:27;13.98;;;12.52;;
20320;SDS011;10318;47.674;9.052;2022-08-19T10:28:54;14.82;;;12.20;;
20320;SDS011;10318;47.674;9.052;2022-08-19T10:31:24;12.45;;;10.95;;
20320;SDS011;10318;47.674;9.052;2022-08-19T10:34:11;11.98;;;10.65;;
20320;SDS011;10318;47.674;9.052;2022-08-19T10:36:53;14.95;;;11.65;;
20320;SDS011;10318;47.674;9.052;2022-08-19T10:39:22;12.85;;;11.48;;
20320;SDS011;10318;47.674;9.052;2022-08-19T10:41:55;11.75;;;10.48;;
20320;SDS011;10318;47.674;9.052;2022-08-19T10:44:23;11.27;;;9.68;;
20320;SDS011;10318;47.674;9.052;2022-08-19T10:46:57;11.57;;;10.27;;
20320;SDS011;10318;47.674;9.052;2022-08-19T10:49:25;12.18;;;10.93;;
20320;SDS011;10318;47.674;9.052;2022-08-19T10:51:53;12.45;;;11.15;;
20320;SDS011;10318;47.674;9.052;2022-08-19T10:54:44;12.07;;;10.88;;
20320;SDS011;10318;47.674;9.052;2022-08-19T10:57:33;14.65;;;12.32;;
20320;SDS011;10318;47.674;9.052;2022-08-19T11:00:20;12.35;;;11.02;;
20320;SDS011;10318;47.674;9.052;2022-08-19T11:02:47;13.65;;;11.82;;
20320;SDS011;10318;47.674;9.052;2022-08-19T11:05:14;14.43;;;11.77;;
20320;SDS011;10318;47.674;9.052;2022-08-19T11:07:41;14.88;;;13.30;;
20320;SDS011;10318;47.674;9.052;2022-08-19T11:10:09;17.67;;;12.35;;
20320;SDS011;10318;47.674;9.052;2022-08-19T11:12:39;13.75;;;12.18;;
20320;SDS011;10318;47.674;9.052;2022-08-19T11:15:07;14.18;;;11.68;;
20320;SDS011;10318;47.674;9.052;2022-08-19T11:17:38;13.85;;;12.38;;
20320;SDS011;10318;47.674;9.052;2022-08-19T11:20:07;15.70;;;12.95;;
20320;SDS011;10318;47.674;9.052;2022-08-19T11:22:34;17.90;;;14.70;;
20320;SDS011;10318;47.674;9.052;2022-08-19T11:25:07;16.27;;;14.57;;
20320;SDS011;10318;47.674;9.052;2022-08-19T11:27:37;15.82;;;14.13;;
20320;SDS011;10318;47.674;9.052;2022-08-19T11:30:04;16.60;;;13.52;;
20320;SDS011;10318;47.674;9.052;2022-08-19T11:32:33;14.68;;;13.05;;
20320;SDS011;10318;47.674;9.052;2022-08-19T11:35:00;17.10;;;14.45;;
20320;SDS011;10318;47.674;9.052;2022-08-19T11:37:27;17.35;;;15.52;;
20320;SDS011;10318;47.674;9.052;2022-08-19T11:39:54;17.42;;;15.13;;
20320;SDS011;10318;47.674;9.052;2022-08-19T11:42:21;17.77;;;15.60;;
20320;SDS011;10318;47.674;9.052;2022-08-19T11:45:06;16.65;;;14.88;;
20320;SDS011;10318;47.674;9.052;2022-08-19T11:47:33;17.15;;;15.20;;
20320;SDS011;10318;47.674;9.052;2022-08-19T11:50:00;17.50;;;14.95;;
20320;SDS011;10318;47.674;9.052;2022-08-19T11:52:26;19.88;;;15.88;;
20320;SDS011;10318;47.674;9.052;2022-08-19T11:54:53;19.00;;;15.63;;
20320;SDS011;10318;47.674;9.052;2022-08-19T11:57:20;18.63;;;15.93;;
20320;SDS011;10318;47.674;9.052;2022-08-19T11:59:48;15.88;;;14.23;;
20320;SDS011;10318;47.674;9.052;2022-08-19T12:02:15;18.65;;;15.73;;
20320;SDS011;10318;47.674;9.052;2022-08-19T12:04:42;20.75;;;15.50;;
20320;SDS011;10318;47.674;9.052;2022-08-19T12:07:08;16.60;;;14.90;;
20320;SDS011;10318;47.674;9.052;2022-08-19T12:09:35;17.38;;;15.52;;
20320;SDS011;10318;47.674;9.052;2022-08-19T12:12:07;17.13;;;14.30;;
20320;SDS011;10318;47.674;9.052;2022-08-19T12:14:35;17.27;;;13.57;;
20320;SDS011;10318;47.674;9.052;2022-08-19T12:17:01;16.13;;;14.43;;
20320;SDS011;10318;47.674;9.052;2022-08-19T12:19:30;16.63;;;14.82;;
20320;SDS011;10318;47.674;9.052;2022-08-19T12:22:00;17.58;;;15.15;;
20320;SDS011;10318;47.674;9.052;2022-08-19T12:24:32;17.00;;;15.20;;
20320;SDS011;10318;47.674;9.052;2022-08-19T12:26:58;16.58;;;14.43;;
20320;SDS011;10318;47.674;9.052;2022-08-19T12:29:28;16.75;;;15.05;;
20320;SDS011;10318;47.674;9.052;2022-08-19T12:31:56;18.80;;;16.80;;
20320;SDS011;10318;47.674;9.052;2022-08-19T12:34:29;18.52;;;16.25;;
20320;SDS011;10318;47.674;9.052;2022-08-19T12:36:57;18.00;;;16.10;;
20320;SDS011;10318;47.674;9.052;2022-08-19T12:39:24;18.70;;;16.65;;
20320;SDS011;10318;47.674;9.052;2022-08-19T12:41:51;20.15;;;17.25;;
20320;SDS011;10318;47.674;9.052;2022-08-19T12:44:20;20.30;;;18.15;;
20320;SDS011;10318;47.674;9.052;2022-08-19T12:46:57;21.05;;;17.42;;
20320;SDS011;10318;47.674;9.052;2022-08-19T12:49:24;20.50;;;18.38;;
20320;SDS011;10318;47.674;9.052;2022-08-19T12:52:11;21.75;;;18.92;;
20320;SDS011;10318;47.674;9.052;2022-08-19T12:54:42;20.40;;;18.20;;
20320;SDS011;10318;47.674;9.052;2022-08-19T12:57:10;19.63;;;17.52;;
20320;SDS011;10318;47.674;9.052;2022-08-19T12:59:37;20.45;;;18.33;;
20320;SDS011;10318;47.674;9.052;2022-08-19T13:02:04;19.33;;;17.33;;
20320;SDS011;10318;47.674;9.052;2022-08-19T13:04:33;20.67;;;18.55;;
20320;SDS011;10318;47.674;9.052;2022-08-19T13:07:02;20.73;;;18.52;;
20320;SDS011;10318;47.674;9.052;2022-08-19T13:09:29;20.00;;;17.90;;
20320;SDS011;10318;47.674;9.052;2022-08-19T13:11:56;20.08;;;17.98;;
20320;SDS011;10318;47.674;9.052;2022-08-19T13:14:23;21.10;;;17.85;;
20320;SDS011;10318;47.674;9.052;2022-08-19T13:16:52;22.95;;;19.45;;
20320;SDS011;10318;47.674;9.052;2022-08-19T13:19:19;21.30;;;18.50;;
20320;SDS011;10318;47.674;9.052;2022-08-19T13:21:49;22.30;;;19.90;;
20320;SDS011;10318;47.674;9.052;2022-08-19T13:24:25;21.13;;;18.95;;
20320;SDS011;10318;47.674;9.052;2022-08-19T13:27:02;22.73;;;20.40;;
20320;SDS011;10318;47.674;9.052;2022-08-19T13:29:28;21.88;;;19.50;;
20320;SDS011;10318;47.674;9.052;2022-08-19T13:32:14;22.70;;;20.23;;
20320;SDS011;10318;47.674;9.052;2022-08-19T13:35:01;22.60;;;20.20;;
20320;SDS011;10318;47.674;9.052;2022-08-19T13:37:28;22.95;;;20.02;;
20320;SDS011;10318;47.674;9.052;2022-08-19T13:40:22;21.10;;;18.90;;
20320;SDS011;10318;47.674;9.052;2022-08-19T13:42:51;21.13;;;18.92;;
20320;SDS011;10318;47.674;9.052;2022-08-19T13:45:19;21.90;;;19.65;;
20320;SDS011;10318;47.674;9.052;2022-08-19T13:47:47;22.65;;;20.30;;
20320;SDS011;10318;47.674;9.052;2022-08-19T13:50:15;22.85;;;20.45;;
20320;SDS011;10318;47.674;9.052;2022-08-19T13:52:42;23.90;;;21.40;;
20320;SDS011;10318;47.674;9.052;2022-08-19T13:55:10;22.30;;;19.90;;
20320;SDS011;10318;47.674;9.052;2022-08-19T13:57:38;24.00;;;21.05;;
20320;SDS011;10318;47.674;9.052;2022-08-19T14:00:13;22.85;;;20.42;;
20320;SDS011;10318;47.674;9.052;2022-08-19T14:02:40;25.77;;;22.20;;
20320;SDS011;10318;47.674;9.052;2022-08-19T14:05:10;24.25;;;21.65;;
20320;SDS011;10318;47.674;9.052;2022-08-19T14:07:37;23.65;;;21.15;;
20320;SDS011;10318;47.674;9.052;2022-08-19T14:10:05;22.90;;;20.42;;
20320;SDS011;10318;47.674;9.052;2022-08-19T14:12:32;25.65;;;22.90;;
20320;SDS011;10318;47.674;9.052;2022-08-19T14:14:59;28.27;;;23.05;;
20320;SDS011;10318;47.674;9.052;2022-08-19T14:17:26;25.40;;;22.70;;
20320;SDS011;10318;47.674;9.052;2022-08-19T14:19:56;27.00;;;22.08;;
20320;SDS011;10318;47.674;9.052;2022-08-19T14:22:23;26.15;;;23.13;;
20320;SDS011;10318;47.674;9.052;2022-08-19T14:24:50;25.17;;;22.52;;
20320;SDS011;10318;47.674;9.052;2022-08-19T14:27:16;26.10;;;23.35;;
20320;SDS011;10318;47.674;9.052;2022-08-19T14:29:43;26.88;;;24.08;;
20320;SDS011;10318;47.674;9.052;2022-08-19T14:32:11;26.85;;;24.05;;
20320;SDS011;10318;47.674;9.052;2022-08-19T14:34:42;25.73;;;22.52;;
20320;SDS011;10318;47.674;9.052;2022-08-19T14:37:12;27.02;;;23.83;;
20320;SDS011;10318;47.674;9.052;2022-08-19T14:39:41;25.77;;;23.08;;
20320;SDS011;10318;47.674;9.052;2022-08-19T14:42:08;26.65;;;23.85;;
20320;SDS011;10318;47.674;9.052;2022-08-19T14:44:37;24.92;;;22.17;;
20320;SDS011;10318;47.674;9.052;2022-08-19T14:47:04;27.00;;;23.92;;
20320;SDS011;10318;47.674;9.052;2022-08-19T14:49:35;27.50;;;23.77;;